createdAt,value
2018-10-06T00:00:29.407Z,66.45
2018-10-06T00:02:58.175Z,66.47
2018-10-06T00:05:26.730Z,66.40
2018-10-06T00:07:55.413Z,67.12
2018-10-06T00:10:24.022Z,67.22
2018-10-06T00:12:52.711Z,67.31
2018-10-06T00:15:21.261Z,67.55
2018-10-06T00:17:49.985Z,68.09
2018-10-06T00:20:18.539Z,67.91
2018-10-06T00:22:47.137Z,68.18
2018-10-06T00:25:15.742Z,68.23
2018-10-06T00:27:44.335Z,68.23
2018-10-06T00:30:13.011Z,68.54
2018-10-06T00:32:41.650Z,68.85
2018-10-06T00:35:10.420Z,69.01
2018-10-06T00:37:38.996Z,69.10
2018-10-06T00:40:07.668Z,69.11
2018-10-06T00:42:36.299Z,69.20
2018-10-06T00:45:05.477Z,69.49
2018-10-06T00:47:34.070Z,69.29
2018-10-06T00:50:02.733Z,69.53
2018-10-06T00:52:31.348Z,69.70
2018-10-06T00:55:00.064Z,69.72
2018-10-06T00:57:28.751Z,69.81
2018-10-06T00:59:57.409Z,69.25
2018-10-06T01:02:26.026Z,69.85
2018-10-06T01:04:54.722Z,69.78
2018-10-06T01:07:23.687Z,69.29
2018-10-06T01:09:52.324Z,69.82
2018-10-06T01:12:21.069Z,69.46
2018-10-06T01:14:49.641Z,68.49
2018-10-06T01:17:18.272Z,68.70
2018-10-06T01:19:46.884Z,69.04
2018-10-06T01:22:15.632Z,69.05
2018-10-06T01:24:44.294Z,68.80
2018-10-06T01:27:13.054Z,68.65
2018-10-06T01:29:41.765Z,68.97
2018-10-06T01:32:10.603Z,68.99
2018-10-06T01:34:39.151Z,69.12
2018-10-06T01:37:07.757Z,69.28
2018-10-06T01:39:36.484Z,69.41
2018-10-06T01:42:05.240Z,70.00
2018-10-06T01:44:33.885Z,69.76
2018-10-06T01:47:02.650Z,70.05
2018-10-06T01:49:31.480Z,70.21
2018-10-06T01:52:00.161Z,70.19
2018-10-06T01:54:28.927Z,70.22
2018-10-06T01:56:58.235Z,70.07
2018-10-06T01:59:26.952Z,70.47
2018-10-06T02:01:55.598Z,70.43
2018-10-06T02:04:25.004Z,70.69
2018-10-06T02:06:54.728Z,70.74
2018-10-06T02:09:23.478Z,70.75
2018-10-06T02:11:52.904Z,70.98
2018-10-06T02:14:21.838Z,70.76
2018-10-06T02:16:50.465Z,71.34
2018-10-06T02:19:19.188Z,70.90
2018-10-06T02:21:47.789Z,70.92
2018-10-06T02:24:16.544Z,70.89
2018-10-06T02:26:45.453Z,70.48
2018-10-06T02:29:14.375Z,70.25
2018-10-06T02:31:43.059Z,70.37
2018-10-06T02:34:12.425Z,70.15
2018-10-06T02:36:41.043Z,70.52
2018-10-06T02:39:09.709Z,70.38
2018-10-06T02:41:38.342Z,70.61
2018-10-06T02:44:07.065Z,69.89
2018-10-06T02:46:35.642Z,69.97
2018-10-06T02:49:04.214Z,70.17
2018-10-06T02:51:33.008Z,70.74
2018-10-06T02:54:01.625Z,70.59
2018-10-06T02:56:30.194Z,70.32
2018-10-06T02:58:59.884Z,70.04
2018-10-06T03:01:28.405Z,70.36
2018-10-06T03:03:57.025Z,70.61
2018-10-06T03:06:25.806Z,70.63
2018-10-06T03:08:54.571Z,70.62
2018-10-06T03:11:23.362Z,70.92
2018-10-06T03:13:52.109Z,70.78
2018-10-06T03:16:20.890Z,70.73
2018-10-06T03:18:49.733Z,71.25
2018-10-06T03:21:18.523Z,70.79
2018-10-06T03:23:47.150Z,70.52
2018-10-06T03:26:16.076Z,70.95
2018-10-06T03:28:44.776Z,70.49
2018-10-06T03:31:13.464Z,70.81
2018-10-06T03:33:41.995Z,70.90
2018-10-06T03:36:10.835Z,71.17
2018-10-06T03:38:39.457Z,70.92
2018-10-06T03:41:08.402Z,70.58
2018-10-06T03:43:37.134Z,70.86
2018-10-06T03:46:05.840Z,70.81
2018-10-06T03:48:34.572Z,70.96
2018-10-06T03:51:03.573Z,70.88
2018-10-06T03:53:32.172Z,70.99
2018-10-06T03:56:01.605Z,70.98
2018-10-06T03:58:30.376Z,70.92
2018-10-06T04:00:59.963Z,71.04
2018-10-06T04:03:28.742Z,71.29
2018-10-06T04:05:57.286Z,71.11
2018-10-06T04:08:25.952Z,71.18
2018-10-06T04:10:54.573Z,70.62
2018-10-06T04:13:23.192Z,70.63
2018-10-06T04:15:52.075Z,70.55
2018-10-06T04:18:20.701Z,70.40
2018-10-06T04:20:49.384Z,70.55
2018-10-06T04:23:18.048Z,71.04
2018-10-06T04:25:46.717Z,70.91
2018-10-06T04:28:15.536Z,70.86
2018-10-06T04:30:44.416Z,71.11
2018-10-06T04:33:13.188Z,70.99
2018-10-06T04:35:41.816Z,70.80
2018-10-06T04:38:10.410Z,70.86
2018-10-06T04:40:40.092Z,71.03
2018-10-06T04:43:08.643Z,70.75
2018-10-06T04:45:37.416Z,70.74
2018-10-06T04:48:06.327Z,71.12
2018-10-06T04:50:34.993Z,70.98
2018-10-06T04:53:04.209Z,70.82
2018-10-06T04:55:32.856Z,70.99
2018-10-06T04:58:01.920Z,70.81
2018-10-06T05:00:30.675Z,70.75
2018-10-06T05:02:59.665Z,71.08
2018-10-06T05:05:28.387Z,71.02
2018-10-06T05:07:57.034Z,71.19
2018-10-06T05:10:25.666Z,71.23
2018-10-06T05:12:54.392Z,71.12
2018-10-06T05:15:23.009Z,71.37
2018-10-06T05:17:51.773Z,71.47
2018-10-06T05:20:20.363Z,71.68
2018-10-06T05:22:48.998Z,71.37
2018-10-06T05:25:17.656Z,71.66
2018-10-06T05:27:46.239Z,71.25
2018-10-06T05:30:14.881Z,71.37
2018-10-06T05:32:43.414Z,71.54
2018-10-06T05:35:12.215Z,71.44
2018-10-06T05:37:40.847Z,71.56
2018-10-06T05:40:09.453Z,71.89
2018-10-06T05:42:38.096Z,72.02
2018-10-06T05:45:07.004Z,71.97
2018-10-06T05:47:35.710Z,72.33
2018-10-06T05:50:04.673Z,72.17
2018-10-06T05:52:33.366Z,72.41
2018-10-06T05:55:02.826Z,72.34
2018-10-06T05:57:31.460Z,72.12
2018-10-06T06:00:00.047Z,72.68
2018-10-06T06:02:28.800Z,72.45
2018-10-06T06:04:57.600Z,72.95
2018-10-06T06:07:26.265Z,72.97
2018-10-06T06:09:54.932Z,72.78
2018-10-06T06:12:23.797Z,72.96
2018-10-06T06:14:52.491Z,72.79
2018-10-06T06:17:21.077Z,72.64
2018-10-06T06:19:49.793Z,72.84
2018-10-06T06:22:18.369Z,73.01
2018-10-06T06:24:47.082Z,72.92
2018-10-06T06:27:15.768Z,72.64
2018-10-06T06:29:44.407Z,72.67
2018-10-06T06:32:13.138Z,72.62
2018-10-06T06:34:41.797Z,72.68
2018-10-06T06:37:10.439Z,72.96
2018-10-06T06:39:39.000Z,73.11
2018-10-06T06:42:07.870Z,73.11
2018-10-06T06:44:36.624Z,72.65
2018-10-06T06:47:05.788Z,72.88
2018-10-06T06:49:34.627Z,72.69
2018-10-06T06:52:04.534Z,72.81
2018-10-06T06:54:33.423Z,72.71
2018-10-06T06:57:03.467Z,72.74
2018-10-06T06:59:32.138Z,72.58
2018-10-06T07:02:00.687Z,72.55
2018-10-06T07:04:29.422Z,72.72
2018-10-06T07:06:58.083Z,72.32
2018-10-06T07:09:26.697Z,72.45
2018-10-06T07:11:55.260Z,72.21
2018-10-06T07:14:23.903Z,72.01
2018-10-06T07:16:52.463Z,71.90
2018-10-06T07:19:21.025Z,71.60
2018-10-06T07:21:49.690Z,71.51
2018-10-06T07:24:18.315Z,71.42
2018-10-06T07:26:47.019Z,71.53
2018-10-06T07:29:15.878Z,71.17
2018-10-06T07:31:44.509Z,71.03
2018-10-06T07:34:13.119Z,71.01
2018-10-06T07:36:41.794Z,71.08
2018-10-06T07:39:10.435Z,71.03
2018-10-06T07:41:39.061Z,70.71
2018-10-06T07:44:07.707Z,70.46
2018-10-06T07:46:36.356Z,70.45
2018-10-06T07:49:05.091Z,70.26
2018-10-06T07:51:33.641Z,70.17
2018-10-06T07:54:02.835Z,70.01
2018-10-06T07:56:31.504Z,70.12
2018-10-06T07:59:00.206Z,69.97
2018-10-06T08:01:28.747Z,70.08
2018-10-06T08:03:57.370Z,69.66
2018-10-06T08:06:26.149Z,69.78
2018-10-06T08:08:54.805Z,69.49
2018-10-06T08:11:23.818Z,69.20
2018-10-06T08:13:52.755Z,69.16
2018-10-06T08:16:21.344Z,68.62
2018-10-06T08:18:50.061Z,68.67
2018-10-06T08:21:18.744Z,68.64
2018-10-06T08:23:47.352Z,68.64
2018-10-06T08:26:16.083Z,68.68
2018-10-06T08:28:44.733Z,68.25
2018-10-06T08:31:13.445Z,67.96
2018-10-06T08:33:42.273Z,68.21
2018-10-06T08:36:10.895Z,68.62
2018-10-06T08:38:39.929Z,68.25
2018-10-06T08:41:08.632Z,67.77
2018-10-06T08:43:37.303Z,68.36
2018-10-06T08:46:06.107Z,67.95
2018-10-06T08:48:34.826Z,67.44
2018-10-06T08:51:04.404Z,67.33
2018-10-06T08:53:33.050Z,67.67
2018-10-06T08:56:02.818Z,67.26
2018-10-06T08:58:31.508Z,66.93
2018-10-06T09:01:00.212Z,67.32
2018-10-06T09:03:28.850Z,66.79
2018-10-06T09:05:57.594Z,66.39
2018-10-06T09:08:26.489Z,66.44
2018-10-06T09:10:55.153Z,66.25
2018-10-06T09:13:23.801Z,66.50
2018-10-06T09:15:52.614Z,66.18
2018-10-06T09:18:21.264Z,65.74
2018-10-06T09:20:49.866Z,65.36
2018-10-06T09:23:19.375Z,64.98
2018-10-06T09:25:48.028Z,64.94
2018-10-06T09:28:16.681Z,64.60
2018-10-06T09:30:45.278Z,65.00
2018-10-06T09:33:13.813Z,64.37
2018-10-06T09:35:42.404Z,63.88
2018-10-06T09:38:11.150Z,64.00
2018-10-06T09:40:39.732Z,63.47
2018-10-06T09:43:08.420Z,63.28
2018-10-06T09:45:37.114Z,63.77
2018-10-06T09:48:05.800Z,63.32
2018-10-06T09:50:34.401Z,63.30
2018-10-06T09:53:03.994Z,63.40
2018-10-06T09:55:32.588Z,62.92
2018-10-06T09:58:01.649Z,61.98
2018-10-06T10:00:35.848Z,62.72
2018-10-06T10:03:09.669Z,61.65
2018-10-06T10:05:45.503Z,61.56
2018-10-06T10:08:14.281Z,61.11
2018-10-06T10:10:58.835Z,61.80
2018-10-06T10:13:27.902Z,60.92
2018-10-06T10:15:56.764Z,61.45
2018-10-06T10:18:25.874Z,61.43
2018-10-06T10:20:54.522Z,60.57
2018-10-06T10:23:23.460Z,60.47
2018-10-06T10:25:52.465Z,59.91
2018-10-06T10:28:21.255Z,59.72
2018-10-06T10:30:50.056Z,59.75
2018-10-06T10:33:18.900Z,59.11
2018-10-06T10:35:47.508Z,58.25
2018-10-06T10:38:16.214Z,58.40
2018-10-06T10:40:44.884Z,58.40
2018-10-06T10:43:13.505Z,57.90
2018-10-06T10:45:42.577Z,57.61
2018-10-06T10:48:11.287Z,57.95
2018-10-06T10:50:40.230Z,58.51
2018-10-06T10:53:08.904Z,57.69
2018-10-06T10:55:37.614Z,57.85
2018-10-06T10:58:06.236Z,56.67
2018-10-06T11:00:35.078Z,56.63
2018-10-06T11:03:04.924Z,56.92
2018-10-06T11:05:33.687Z,57.33
2018-10-06T11:08:02.587Z,55.34
2018-10-06T11:10:31.436Z,54.95
2018-10-06T11:13:00.046Z,54.44
2018-10-06T11:15:28.708Z,55.27
2018-10-06T11:17:57.381Z,55.46
2018-10-06T11:20:26.343Z,54.83
2018-10-06T11:22:55.057Z,54.64
2018-10-06T11:25:23.894Z,54.54
2018-10-06T11:27:52.668Z,54.10
2018-10-06T11:30:21.292Z,53.26
2018-10-06T11:32:50.374Z,52.44
2018-10-06T11:35:19.611Z,52.49
2018-10-06T11:37:48.613Z,53.17
2018-10-06T11:40:17.318Z,53.00
2018-10-06T11:42:46.736Z,52.86
2018-10-06T11:45:15.297Z,52.20
2018-10-06T11:47:44.193Z,51.32
2018-10-06T11:50:12.732Z,51.54
2018-10-06T11:52:41.758Z,52.00
2018-10-06T11:55:10.657Z,52.08
2018-10-06T11:57:39.577Z,51.55
2018-10-06T12:00:08.846Z,51.44
2018-10-06T12:02:37.336Z,52.72
2018-10-06T12:05:07.056Z,50.87
2018-10-06T12:07:35.774Z,50.71
2018-10-06T12:10:04.731Z,50.62
2018-10-06T12:12:33.502Z,50.03
2018-10-06T12:15:03.032Z,49.27
2018-10-06T12:17:31.786Z,48.40
2018-10-06T12:20:00.611Z,48.84
2018-10-06T12:22:29.229Z,47.87
2018-10-06T12:24:57.861Z,48.88
2018-10-06T12:27:26.642Z,48.65
2018-10-06T12:29:55.591Z,48.21
2018-10-06T12:32:24.265Z,50.56
2018-10-06T12:34:53.213Z,48.67
2018-10-06T12:37:22.058Z,48.81
2018-10-06T12:39:50.628Z,48.92
2018-10-06T12:42:19.461Z,50.05
2018-10-06T12:44:48.075Z,50.31
2018-10-06T12:47:16.921Z,51.69
2018-10-06T12:49:45.576Z,49.16
2018-10-06T12:52:15.301Z,48.63
2018-10-06T12:54:44.368Z,49.86
2018-10-06T12:57:13.004Z,50.12
2018-10-06T12:59:41.743Z,49.46
2018-10-06T13:02:10.483Z,49.21
2018-10-06T13:04:39.195Z,48.97
2018-10-06T13:07:07.849Z,48.81
2018-10-06T13:09:36.534Z,47.96
2018-10-06T13:12:05.272Z,46.88
2018-10-06T13:14:33.934Z,46.56
2018-10-06T13:17:03.558Z,47.06
2018-10-06T13:19:32.289Z,46.99
2018-10-06T13:22:01.000Z,47.31
2018-10-06T13:24:29.582Z,46.96
2018-10-06T13:26:58.248Z,49.25
2018-10-06T13:29:26.944Z,49.44
2018-10-06T13:31:55.607Z,48.00
2018-10-06T13:34:24.247Z,48.46
2018-10-06T13:36:53.105Z,49.36
2018-10-06T13:39:21.783Z,50.02
2018-10-06T13:41:51.794Z,49.68
2018-10-06T13:44:20.516Z,49.29
2018-10-06T13:46:49.528Z,51.31
2018-10-06T13:49:18.348Z,50.09
2018-10-06T13:51:47.168Z,50.33
2018-10-06T13:54:16.098Z,50.32
2018-10-06T13:56:44.966Z,49.72
2018-10-06T13:59:13.839Z,50.59
2018-10-06T14:01:46.484Z,51.52
2018-10-06T14:04:15.599Z,51.40
2018-10-06T14:06:44.969Z,50.98
2018-10-06T14:09:13.721Z,50.63
2018-10-06T14:11:42.391Z,50.40
2018-10-06T14:14:11.030Z,50.35
2018-10-06T14:16:39.803Z,50.20
2018-10-06T14:19:08.860Z,50.32
2018-10-06T14:21:37.458Z,50.98
2018-10-06T14:24:06.169Z,50.44
2018-10-06T14:26:35.021Z,51.27
2018-10-06T14:29:04.419Z,49.67
2018-10-06T14:31:35.920Z,49.71
2018-10-06T14:34:05.228Z,49.43
2018-10-06T14:36:33.915Z,50.66
2018-10-06T14:39:03.062Z,49.90
2018-10-06T14:41:32.111Z,49.96
2018-10-06T14:44:02.116Z,50.05
2018-10-06T14:46:30.872Z,50.04
2018-10-06T14:48:59.744Z,50.31
2018-10-06T14:51:28.703Z,50.36
2018-10-06T14:53:57.561Z,50.19
2018-10-06T14:56:27.649Z,50.35
2018-10-06T14:58:56.393Z,50.58
2018-10-06T15:01:25.163Z,50.40
2018-10-06T15:03:54.469Z,51.40
2018-10-06T15:06:23.210Z,51.34
2018-10-06T15:08:52.138Z,51.82
2018-10-06T15:11:21.241Z,51.79
2018-10-06T15:13:50.351Z,52.62
2018-10-06T15:16:19.105Z,53.24
2018-10-06T15:18:48.229Z,52.26
2018-10-06T15:21:18.471Z,52.31
2018-10-06T15:23:48.189Z,53.29
2018-10-06T15:26:16.848Z,53.99
2018-10-06T15:28:45.442Z,54.36
2018-10-06T15:31:14.266Z,54.24
2018-10-06T15:33:43.022Z,54.00
2018-10-06T15:36:11.621Z,54.58
2018-10-06T15:38:40.551Z,54.93
2018-10-06T15:41:09.309Z,55.33
2018-10-06T15:43:37.884Z,55.76
2018-10-06T15:46:07.527Z,56.54
2018-10-06T15:48:36.210Z,55.92
2018-10-06T15:51:05.198Z,56.32
2018-10-06T15:53:33.723Z,57.25
2018-10-06T15:56:02.628Z,57.89
2018-10-06T15:58:31.309Z,57.98
2018-10-06T16:01:00.044Z,57.96
2018-10-06T16:03:28.730Z,58.92
2018-10-06T16:05:57.542Z,58.71
2018-10-06T16:08:26.226Z,58.70
2018-10-06T16:10:54.990Z,58.86
2018-10-06T16:13:23.568Z,58.60
2018-10-06T16:15:52.318Z,59.36
2018-10-06T16:18:21.170Z,58.91
2018-10-06T16:20:49.869Z,59.41
2018-10-06T16:23:18.528Z,59.71
2018-10-06T16:25:47.212Z,59.68
2018-10-06T16:28:15.935Z,59.40
2018-10-06T16:30:44.735Z,60.04
2018-10-06T16:33:13.471Z,60.09
2018-10-06T16:35:42.183Z,60.29
2018-10-06T16:38:10.956Z,60.74
2018-10-06T16:40:39.621Z,60.55
2018-10-06T16:43:08.345Z,61.05
2018-10-06T16:45:37.075Z,61.67
2018-10-06T16:48:05.839Z,61.52
2018-10-06T16:50:34.568Z,62.60
2018-10-06T16:53:03.509Z,62.23
2018-10-06T16:55:32.165Z,61.87
2018-10-06T16:58:00.790Z,63.10
2018-10-06T17:00:29.517Z,63.19
2018-10-06T17:02:58.130Z,63.78
2018-10-06T17:05:26.775Z,63.52
2018-10-06T17:07:55.439Z,63.30
2018-10-06T17:10:24.073Z,63.91
2018-10-06T17:12:52.829Z,64.08
2018-10-06T17:15:21.477Z,64.07
2018-10-06T17:17:50.144Z,65.64
2018-10-06T17:20:18.822Z,64.63
2018-10-06T17:22:47.575Z,65.53
2018-10-06T17:25:16.340Z,65.59
2018-10-06T17:27:45.101Z,65.44
2018-10-06T17:30:13.864Z,66.90
2018-10-06T17:32:42.488Z,66.50
2018-10-06T17:35:11.222Z,66.51
2018-10-06T17:37:39.947Z,65.81
2018-10-06T17:40:08.596Z,66.63
2018-10-06T17:42:37.563Z,67.31
2018-10-06T17:45:06.616Z,66.70
2018-10-06T17:47:35.239Z,66.99
2018-10-06T17:50:04.785Z,66.50
2018-10-06T17:52:33.267Z,67.85
2018-10-06T17:55:02.037Z,67.82
2018-10-06T17:57:31.053Z,68.63
2018-10-06T17:59:59.761Z,68.49
2018-10-06T18:02:28.541Z,67.87
2018-10-06T18:04:57.422Z,69.23
2018-10-06T18:07:26.203Z,69.19
2018-10-06T18:09:55.162Z,69.40
2018-10-06T18:12:23.824Z,69.26
2018-10-06T18:14:52.536Z,69.10
2018-10-06T18:17:21.182Z,69.01
2018-10-06T18:19:49.812Z,69.26
2018-10-06T18:22:18.647Z,69.31
2018-10-06T18:24:47.618Z,69.92
2018-10-06T18:27:16.489Z,70.06
2018-10-06T18:29:45.325Z,69.96
2018-10-06T18:32:14.212Z,70.06
2018-10-06T18:34:42.947Z,69.48
2018-10-06T18:37:11.936Z,69.54
2018-10-06T18:39:40.523Z,69.72
2018-10-06T18:42:09.235Z,69.23
2018-10-06T18:44:37.950Z,69.63
2018-10-06T18:47:06.977Z,70.24
2018-10-06T18:49:35.633Z,69.75
2018-10-06T18:52:04.218Z,69.31
2018-10-06T18:54:32.886Z,69.46
2018-10-06T18:57:01.555Z,69.08
2018-10-06T18:59:30.370Z,70.51
2018-10-06T19:01:59.051Z,69.87
2018-10-06T19:04:27.735Z,69.75
2018-10-06T19:06:56.420Z,69.59
2018-10-06T19:09:25.054Z,69.84
2018-10-06T19:11:54.109Z,69.54
2018-10-06T19:14:23.910Z,70.55
2018-10-06T19:16:52.668Z,69.57
2018-10-06T19:19:21.288Z,70.25
2018-10-06T19:21:50.181Z,69.18
2018-10-06T19:24:18.870Z,69.76
2018-10-06T19:26:47.743Z,69.73
2018-10-06T19:29:16.487Z,69.67
2018-10-06T19:31:45.395Z,69.87
2018-10-06T19:34:14.036Z,69.88
2018-10-06T19:36:42.840Z,70.15
2018-10-06T19:39:11.484Z,70.82
2018-10-06T19:41:40.588Z,70.24
2018-10-06T19:44:09.393Z,70.41
2018-10-06T19:46:38.153Z,70.62
2018-10-06T19:49:07.184Z,70.75
2018-10-06T19:51:36.033Z,71.76
2018-10-06T19:54:04.807Z,71.59
2018-10-06T19:56:33.614Z,71.18
2018-10-06T19:59:03.215Z,71.15
2018-10-06T20:01:32.019Z,71.25
2018-10-06T20:04:00.657Z,71.27
2018-10-06T20:06:29.414Z,71.03
2018-10-06T20:08:58.185Z,71.13
2018-10-06T20:11:26.934Z,71.84
2018-10-06T20:13:55.855Z,71.25
2018-10-06T20:16:24.528Z,71.76
2018-10-06T20:18:53.293Z,71.78
2018-10-06T20:21:22.156Z,71.46
2018-10-06T20:23:50.892Z,72.19
2018-10-06T20:26:19.609Z,72.10
2018-10-06T20:28:48.289Z,71.48
2018-10-06T20:31:17.125Z,72.28
2018-10-06T20:33:45.814Z,72.02
2018-10-06T20:36:14.635Z,72.07
2018-10-06T20:38:43.414Z,72.20
2018-10-06T20:41:12.152Z,72.74
2018-10-06T20:43:40.903Z,72.10
2018-10-06T20:46:09.559Z,72.70
2018-10-06T20:48:38.187Z,72.63
2018-10-06T20:51:06.987Z,72.73
2018-10-06T20:53:35.884Z,72.15
2018-10-06T20:56:04.587Z,72.42
2018-10-06T20:58:33.353Z,72.34
2018-10-06T21:01:05.562Z,72.74
2018-10-06T21:03:34.288Z,72.42
2018-10-06T21:06:03.696Z,72.45
2018-10-06T21:08:32.418Z,72.36
2018-10-06T21:11:01.860Z,72.87
2018-10-06T21:13:30.485Z,72.71
2018-10-06T21:15:59.898Z,72.54
2018-10-06T21:18:28.663Z,72.49
2018-10-06T21:20:57.270Z,72.62
2018-10-06T21:23:26.009Z,72.25
2018-10-06T21:25:54.769Z,71.85
2018-10-06T21:28:23.690Z,72.50
2018-10-06T21:30:52.298Z,72.17
2018-10-06T21:33:20.948Z,72.35
2018-10-06T21:35:50.206Z,71.54
2018-10-06T21:38:18.846Z,71.87
2018-10-06T21:40:47.558Z,71.93
2018-10-06T21:43:16.297Z,71.39
2018-10-06T21:45:45.152Z,71.85
2018-10-06T21:48:13.896Z,72.08
2018-10-06T21:50:42.593Z,72.07
2018-10-06T21:53:11.452Z,71.88
2018-10-06T21:55:40.548Z,72.27
2018-10-06T21:58:09.315Z,72.12
2018-10-06T22:00:39.051Z,71.66
2018-10-06T22:03:07.855Z,71.21
2018-10-06T22:05:36.424Z,72.04
2018-10-06T22:08:05.558Z,72.45
2018-10-06T22:10:35.682Z,72.43
2018-10-06T22:13:04.627Z,72.52
2018-10-06T22:15:33.245Z,72.47
2018-10-06T22:18:01.782Z,72.58
2018-10-06T22:20:30.441Z,72.74
2018-10-06T22:22:59.105Z,72.86
2018-10-06T22:25:27.877Z,72.97
2018-10-06T22:27:56.595Z,73.05
2018-10-06T22:30:25.239Z,73.29
2018-10-06T22:32:53.945Z,72.87
2018-10-06T22:35:22.726Z,72.86
2018-10-06T22:37:51.464Z,73.60
2018-10-06T22:40:23.253Z,73.30
2018-10-06T22:42:51.992Z,73.09
2018-10-06T22:45:25.535Z,73.57
2018-10-06T22:47:55.284Z,73.80
2018-10-06T22:50:24.194Z,73.90
2018-10-06T22:52:52.815Z,74.07
2018-10-06T22:55:21.483Z,74.38
2018-10-06T22:57:58.073Z,74.27
2018-10-06T23:00:26.747Z,74.15
2018-10-06T23:02:55.490Z,73.95
2018-10-06T23:05:24.293Z,74.08
2018-10-06T23:07:53.170Z,74.63
2018-10-06T23:10:22.010Z,74.68
2018-10-06T23:12:51.813Z,74.26
2018-10-06T23:15:20.464Z,74.23
2018-10-06T23:17:49.052Z,74.41
2018-10-06T23:20:17.663Z,74.23
2018-10-06T23:22:46.354Z,74.58
2018-10-06T23:25:14.984Z,73.77
2018-10-06T23:27:43.532Z,74.02
2018-10-06T23:30:12.172Z,73.18
2018-10-06T23:32:40.907Z,72.54
2018-10-06T23:35:09.822Z,72.36
2018-10-06T23:37:38.424Z,72.44
2018-10-06T23:40:07.122Z,72.56
2018-10-06T23:42:35.762Z,71.98
2018-10-06T23:45:04.516Z,71.56
2018-10-06T23:47:33.319Z,71.82
2018-10-06T23:50:02.517Z,71.71
2018-10-06T23:52:31.243Z,71.51
2018-10-06T23:55:00.046Z,71.67
2018-10-06T23:57:28.650Z,71.64
2018-10-06T23:59:57.380Z,72.01
